createdAt,value
2022-08-27T00:01:57.476Z,61.45
2022-08-27T00:05:21.529Z,56.87
2022-08-27T00:08:45.467Z,55.88
2022-08-27T00:12:08.524Z,56.34
2022-08-27T00:15:25.132Z,54.25
2022-08-27T00:18:42.535Z,54.56
2022-08-27T00:22:05.467Z,52.95
2022-08-27T00:25:28.525Z,54.43
2022-08-27T00:28:51.473Z,51.91
2022-08-27T00:32:14.572Z,49.93
2022-08-27T00:35:38.546Z,51.36
2022-08-27T00:39:01.459Z,51.17
2022-08-27T00:42:24.510Z,51.89
2022-08-27T00:45:48.499Z,52.46
2022-08-27T00:49:12.553Z,51.03
2022-08-27T00:52:52.515Z,48.38
2022-08-27T00:56:20.505Z,49.85
2022-08-27T00:59:44.519Z,50.07
2022-08-27T01:03:07.498Z,50.06
2022-08-27T01:06:31.607Z,49.39
2022-08-27T01:09:54.521Z,52.34
2022-08-27T01:13:17.519Z,49.31
2022-08-27T01:16:42.591Z,50.64
2022-08-27T01:20:06.474Z,51.65
2022-08-27T01:23:38.511Z,49.59
2022-08-27T01:27:01.563Z,49.82
2022-08-27T01:30:26.561Z,49.55
2022-08-27T01:33:49.554Z,50.59
2022-08-27T01:37:13.523Z,50.94
2022-08-27T01:40:37.652Z,51.13
2022-08-27T01:44:00.568Z,52.03
2022-08-27T01:47:24.529Z,50.80
2022-08-27T01:50:56.544Z,50.60
2022-08-27T01:54:21.584Z,52.29
2022-08-27T01:57:44.516Z,51.50
2022-08-27T02:01:08.667Z,50.52
2022-08-27T02:04:31.504Z,52.85
2022-08-27T02:07:53.679Z,50.69
2022-08-27T02:11:17.509Z,50.37
2022-08-27T02:14:40.552Z,52.44
2022-08-27T02:17:58.137Z,50.18
2022-08-27T02:21:16.588Z,51.62
2022-08-27T02:24:39.510Z,50.11
2022-08-27T02:28:03.634Z,53.68
2022-08-27T02:31:27.525Z,53.42
2022-08-27T02:34:53.543Z,55.79
2022-08-27T02:38:16.602Z,53.78
2022-08-27T02:41:39.558Z,50.71
2022-08-27T02:45:02.631Z,50.16
2022-08-27T02:48:25.547Z,50.08
2022-08-27T02:51:48.579Z,49.23
2022-08-27T02:55:12.547Z,49.93
2022-08-27T02:58:35.619Z,51.53
2022-08-27T03:01:58.632Z,52.29
2022-08-27T03:05:22.568Z,53.72
2022-08-27T03:08:52.139Z,54.32
2022-08-27T03:12:17.588Z,55.06
2022-08-27T03:15:40.606Z,57.53
2022-08-27T03:19:03.577Z,57.75
2022-08-27T03:22:26.584Z,58.55
2022-08-27T03:25:49.617Z,57.54
2022-08-27T03:29:12.585Z,58.63
2022-08-27T03:32:35.590Z,59.56
2022-08-27T03:35:58.628Z,60.29
2022-08-27T03:39:22.550Z,61.69
2022-08-27T03:42:46.572Z,62.63
2022-08-27T03:46:09.646Z,59.50
2022-08-27T03:49:34.615Z,61.54
2022-08-27T03:52:57.604Z,61.55
2022-08-27T03:56:20.575Z,62.09
2022-08-27T03:59:43.557Z,61.96
2022-08-27T04:03:08.668Z,62.75
2022-08-27T04:06:32.552Z,64.17
2022-08-27T04:09:56.607Z,64.34
2022-08-27T04:13:20.605Z,63.61
2022-08-27T04:16:43.666Z,63.87
2022-08-27T04:20:31.740Z,65.22
2022-08-27T04:23:40.651Z,65.41
2022-08-27T04:27:04.583Z,64.47
2022-08-27T04:30:27.612Z,65.92
2022-08-27T04:33:51.576Z,65.11
2022-08-27T04:37:15.652Z,66.18
2022-08-27T04:41:04.603Z,66.44
2022-08-27T04:44:27.658Z,66.47
2022-08-27T04:47:51.608Z,67.30
2022-08-27T04:51:14.656Z,69.06
2022-08-27T04:54:40.658Z,68.24
2022-08-27T04:58:04.585Z,68.47
2022-08-27T05:01:32.684Z,70.06
2022-08-27T05:04:55.677Z,68.83
2022-08-27T05:08:22.596Z,69.17
2022-08-27T05:11:45.721Z,69.34
2022-08-27T05:15:10.601Z,71.40
2022-08-27T05:18:37.959Z,71.39
2022-08-27T05:22:00.192Z,70.92
2022-08-27T05:25:19.662Z,71.05
2022-08-27T05:28:43.693Z,70.96
2022-08-27T05:32:06.672Z,71.81
2022-08-27T05:35:29.649Z,71.75
2022-08-27T05:38:52.747Z,71.49
2022-08-27T05:42:15.622Z,71.77
2022-08-27T05:45:38.676Z,72.26
2022-08-27T05:49:02.620Z,70.88
2022-08-27T05:52:26.661Z,71.04
2022-08-27T05:55:53.730Z,70.55
2022-08-27T05:59:35.040Z,70.45
2022-08-27T06:02:58.745Z,72.04
2022-08-27T06:06:22.637Z,72.53
2022-08-27T06:09:45.652Z,71.95
2022-08-27T06:13:08.638Z,71.52
2022-08-27T06:16:33.694Z,71.06
2022-08-27T06:19:56.671Z,70.96
2022-08-27T06:23:28.102Z,71.61
2022-08-27T06:26:52.680Z,72.45
2022-08-27T06:30:17.560Z,71.61
2022-08-27T06:33:40.678Z,71.92
2022-08-27T06:37:04.654Z,72.74
2022-08-27T06:40:26.862Z,73.27
2022-08-27T06:43:50.621Z,73.47
2022-08-27T06:47:13.654Z,73.86
2022-08-27T06:50:37.669Z,73.00
2022-08-27T06:54:00.709Z,72.41
2022-08-27T06:57:23.704Z,73.38
2022-08-27T07:00:48.984Z,73.31
2022-08-27T07:04:13.654Z,74.47
2022-08-27T07:07:43.232Z,74.44
2022-08-27T07:11:10.653Z,74.58
2022-08-27T07:14:37.767Z,73.99
2022-08-27T07:18:01.657Z,75.39
2022-08-27T07:21:24.744Z,75.58
2022-08-27T07:24:41.496Z,76.61
2022-08-27T07:28:04.749Z,76.38
2022-08-27T07:31:28.712Z,76.85
2022-08-27T07:34:51.724Z,77.48
2022-08-27T07:38:14.673Z,77.29
2022-08-27T07:41:37.689Z,78.00
2022-08-27T07:45:00.748Z,78.91
2022-08-27T07:48:24.692Z,78.97
2022-08-27T07:51:47.724Z,79.82
2022-08-27T07:55:10.664Z,79.78
2022-08-27T07:58:34.766Z,79.69
2022-08-27T08:01:57.695Z,80.20
2022-08-27T08:05:20.745Z,80.95
2022-08-27T08:08:43.902Z,82.32
2022-08-27T08:12:06.707Z,81.17
2022-08-27T08:15:29.731Z,81.25
2022-08-27T08:18:52.720Z,82.12
2022-08-27T08:22:15.740Z,83.60
2022-08-27T08:25:34.553Z,84.67
2022-08-27T08:29:02.701Z,86.46
2022-08-27T08:32:25.706Z,85.85
2022-08-27T08:35:52.715Z,86.64
2022-08-27T08:39:14.707Z,88.10
2022-08-27T08:42:43.685Z,88.07
2022-08-27T08:46:17.782Z,89.52
2022-08-27T08:49:50.733Z,90.79
2022-08-27T08:53:14.786Z,90.14
2022-08-27T08:56:43.704Z,91.32
2022-08-27T09:00:11.751Z,90.21
2022-08-27T09:03:35.730Z,90.98
2022-08-27T09:07:16.771Z,91.86
2022-08-27T09:10:49.790Z,92.32
2022-08-27T09:14:15.736Z,92.10
2022-08-27T09:17:38.774Z,92.83
2022-08-27T09:21:27.699Z,92.89
2022-08-27T09:25:00.740Z,96.41
2022-08-27T09:28:50.779Z,97.52
2022-08-27T09:32:21.745Z,97.79
2022-08-27T09:36:04.779Z,96.55
2022-08-27T09:39:27.688Z,98.78
2022-08-27T09:42:52.728Z,98.94
2022-08-27T09:46:17.711Z,99.45
2022-08-27T09:49:44.751Z,98.84
2022-08-27T09:53:10.698Z,98.07
2022-08-27T09:56:38.736Z,99.21
2022-08-27T10:00:07.735Z,98.06
2022-08-27T10:03:34.781Z,97.76
2022-08-27T10:07:04.745Z,97.43
2022-08-27T10:10:46.724Z,98.24
2022-08-27T10:14:22.768Z,98.20
2022-08-27T10:18:08.865Z,98.03
2022-08-27T10:21:43.797Z,98.69
2022-08-27T10:25:18.773Z,98.64
2022-08-27T10:28:55.810Z,99.12
2022-08-27T10:32:38.755Z,98.93
2022-08-27T10:36:26.257Z,98.36
2022-08-27T10:40:07.768Z,99.58
2022-08-27T10:43:33.798Z,99.34
2022-08-27T10:47:15.789Z,98.95
2022-08-27T10:50:41.746Z,99.18
2022-08-27T10:54:08.745Z,98.58
2022-08-27T10:57:55.529Z,99.30
2022-08-27T11:01:32.875Z,100.00
2022-08-27T11:05:01.776Z,100.00
2022-08-27T11:08:43.813Z,100.00
2022-08-27T11:12:15.770Z,99.40
2022-08-27T11:15:43.757Z,99.65
2022-08-27T11:19:08.822Z,99.99
2022-08-27T11:22:33.786Z,99.08
2022-08-27T11:26:07.824Z,99.94
2022-08-27T11:29:34.791Z,99.91
2022-08-27T11:33:17.783Z,100.00
2022-08-27T11:36:58.785Z,100.00
2022-08-27T11:40:34.861Z,100.00
2022-08-27T11:43:57.815Z,100.00
2022-08-27T11:47:26.748Z,100.00
2022-08-27T11:50:50.821Z,100.00
2022-08-27T11:54:14.828Z,100.00
2022-08-27T11:57:46.741Z,100.00
2022-08-27T12:01:09.833Z,100.00
2022-08-27T12:04:48.843Z,100.00
2022-08-27T12:08:12.965Z,100.00
2022-08-27T12:11:41.817Z,100.00
2022-08-27T12:15:08.834Z,100.00
2022-08-27T12:18:44.766Z,100.00
2022-08-27T12:22:16.835Z,100.00
2022-08-27T12:25:40.778Z,100.00
2022-08-27T12:29:03.791Z,100.00
2022-08-27T12:32:30.806Z,100.00
2022-08-27T12:36:04.837Z,100.00
2022-08-27T12:39:36.773Z,100.00
2022-08-27T12:43:00.843Z,100.00
2022-08-27T12:46:23.782Z,100.00
2022-08-27T12:49:56.843Z,100.00
2022-08-27T12:53:38.820Z,100.00
2022-08-27T12:57:10.811Z,100.00
2022-08-27T13:00:34.879Z,100.00
2022-08-27T13:04:02.864Z,100.00
2022-08-27T13:07:19.801Z,100.00
2022-08-27T13:10:43.859Z,100.00
2022-08-27T13:14:06.789Z,100.00
2022-08-27T13:17:30.870Z,100.00
2022-08-27T13:20:53.799Z,100.00
2022-08-27T13:24:17.786Z,100.00
2022-08-27T13:27:42.804Z,100.00
2022-08-27T13:31:05.894Z,100.00
2022-08-27T13:34:29.781Z,100.00
2022-08-27T13:37:57.868Z,100.00
2022-08-27T13:41:23.811Z,100.00
2022-08-27T13:44:48.801Z,100.00
2022-08-27T13:48:33.820Z,100.00
2022-08-27T13:51:57.871Z,100.00
2022-08-27T13:55:24.858Z,100.00
2022-08-27T13:58:48.869Z,100.00
2022-08-27T14:02:27.016Z,100.00
2022-08-27T14:05:49.846Z,100.00
2022-08-27T14:09:12.899Z,100.00
2022-08-27T14:12:46.844Z,100.00
2022-08-27T14:16:10.915Z,100.00
2022-08-27T14:19:39.828Z,100.00
2022-08-27T14:23:03.865Z,100.00
2022-08-27T14:26:26.864Z,100.00
2022-08-27T14:29:48.822Z,100.00
2022-08-27T14:33:13.831Z,100.00
2022-08-27T14:36:36.860Z,100.00
2022-08-27T14:39:59.937Z,100.00
2022-08-27T14:43:23.840Z,100.00
2022-08-27T14:46:47.945Z,100.00
2022-08-27T14:50:10.842Z,100.00
2022-08-27T14:53:34.856Z,100.00
2022-08-27T14:56:57.899Z,100.00
2022-08-27T15:00:21.809Z,100.00
2022-08-27T15:03:44.844Z,100.00
2022-08-27T15:07:07.847Z,100.00
2022-08-27T15:10:30.849Z,100.00
2022-08-27T15:13:53.880Z,100.00
2022-08-27T15:17:34.769Z,100.00
2022-08-27T15:20:57.846Z,100.00
2022-08-27T15:24:27.910Z,100.00
2022-08-27T15:27:50.861Z,100.00
2022-08-27T15:31:13.939Z,100.00
2022-08-27T15:34:30.460Z,100.00
2022-08-27T15:37:47.992Z,100.00
2022-08-27T15:41:10.892Z,100.00
2022-08-27T15:44:33.866Z,100.00
2022-08-27T15:47:56.841Z,100.00
2022-08-27T15:51:21.904Z,100.00
2022-08-27T15:54:44.887Z,100.00
2022-08-27T15:58:08.855Z,100.00
2022-08-27T16:01:34.973Z,100.00
2022-08-27T16:04:57.881Z,100.00
2022-08-27T16:08:19.964Z,100.00
2022-08-27T16:11:42.832Z,100.00
2022-08-27T16:15:05.931Z,100.00
2022-08-27T16:18:28.880Z,100.00
2022-08-27T16:21:51.878Z,100.00
2022-08-27T16:25:18.436Z,100.00
2022-08-27T16:28:41.917Z,100.00
2022-08-27T16:32:04.869Z,100.00
2022-08-27T16:35:30.884Z,100.00
2022-08-27T16:38:54.902Z,100.00
2022-08-27T16:42:18.916Z,100.00
2022-08-27T16:45:41.888Z,100.00
2022-08-27T16:49:24.850Z,100.00
2022-08-27T16:52:47.896Z,100.00
2022-08-27T16:56:11.899Z,100.00
2022-08-27T16:59:36.946Z,100.00
2022-08-27T17:02:59.891Z,100.00
2022-08-27T17:06:21.944Z,100.00
2022-08-27T17:09:46.898Z,100.00
2022-08-27T17:13:10.945Z,100.00
2022-08-27T17:16:37.852Z,100.00
2022-08-27T17:20:00.898Z,100.00
2022-08-27T17:23:26.896Z,100.00
2022-08-27T17:26:59.897Z,100.00
2022-08-27T17:30:23.952Z,100.00
2022-08-27T17:33:48.862Z,100.00
2022-08-27T17:37:11.918Z,100.00
2022-08-27T17:40:34.943Z,100.00
2022-08-27T17:43:57.929Z,100.00
2022-08-27T17:47:21.866Z,100.00
2022-08-27T17:50:46.955Z,100.00
2022-08-27T17:54:10.918Z,100.00
2022-08-27T17:57:40.323Z,100.00
2022-08-27T18:01:05.005Z,100.00
2022-08-27T18:04:33.023Z,100.00
2022-08-27T18:07:56.957Z,100.00
2022-08-27T18:11:20.927Z,100.00
2022-08-27T18:14:43.903Z,100.00
2022-08-27T18:18:08.991Z,100.00
2022-08-27T18:21:31.913Z,100.00
2022-08-27T18:24:53.931Z,100.00
2022-08-27T18:28:17.949Z,100.00
2022-08-27T18:31:42.949Z,100.00
2022-08-27T18:35:05.951Z,100.00
2022-08-27T18:38:23.525Z,100.00
2022-08-27T18:41:41.902Z,100.00
2022-08-27T18:45:05.995Z,100.00
2022-08-27T18:48:32.968Z,100.00
2022-08-27T18:51:57.936Z,100.00
2022-08-27T18:55:20.930Z,100.00
2022-08-27T18:58:46.901Z,100.00
2022-08-27T19:02:10.099Z,100.00
2022-08-27T19:05:32.939Z,100.00
2022-08-27T19:08:57.984Z,100.00
2022-08-27T19:12:22.894Z,100.00
2022-08-27T19:15:45.934Z,100.00
2022-08-27T19:19:09.916Z,100.00
2022-08-27T19:22:32.951Z,100.00
2022-08-27T19:25:55.935Z,100.00
2022-08-27T19:29:19.981Z,96.68
2022-08-27T19:32:42.971Z,92.29
2022-08-27T19:36:06.981Z,87.59
2022-08-27T19:39:23.491Z,87.60
2022-08-27T19:42:40.985Z,83.64
2022-08-27T19:46:03.942Z,81.68
2022-08-27T19:49:27.995Z,77.00
2022-08-27T19:52:51.907Z,75.71
2022-08-27T19:56:14.995Z,75.02
2022-08-27T19:59:37.956Z,75.75
2022-08-27T20:03:00.966Z,82.34
2022-08-27T20:06:23.978Z,88.21
2022-08-27T20:09:49.958Z,87.37
2022-08-27T20:13:14.003Z,87.24
2022-08-27T20:16:37.015Z,85.48
2022-08-27T20:19:59.965Z,86.25
2022-08-27T20:23:25.031Z,86.10
2022-08-27T20:26:48.009Z,82.95
2022-08-27T20:30:12.954Z,82.50
2022-08-27T20:33:36.952Z,80.60
2022-08-27T20:36:59.971Z,81.05
2022-08-27T20:40:17.609Z,78.06
2022-08-27T20:43:36.043Z,78.85
2022-08-27T20:46:59.010Z,76.59
2022-08-27T20:50:21.958Z,75.39
2022-08-27T20:53:44.982Z,75.46
2022-08-27T20:57:07.956Z,75.31
2022-08-27T21:00:30.994Z,72.63
2022-08-27T21:03:54.958Z,69.95
2022-08-27T21:07:16.982Z,69.24
2022-08-27T21:10:39.957Z,67.04
2022-08-27T21:14:02.946Z,67.31
2022-08-27T21:17:26.013Z,65.03
2022-08-27T21:20:48.951Z,65.63
2022-08-27T21:24:12.012Z,67.38
2022-08-27T21:27:35.973Z,64.85
2022-08-27T21:30:59.030Z,62.34
2022-08-27T21:34:22.018Z,61.58
2022-08-27T21:37:45.007Z,60.45
2022-08-27T21:41:08.978Z,58.91
2022-08-27T21:44:33.036Z,55.87
2022-08-27T21:47:56.988Z,55.87
2022-08-27T21:51:26.974Z,54.79
2022-08-27T21:54:50.990Z,52.53
2022-08-27T21:58:14.046Z,51.60
2022-08-27T22:01:37.041Z,51.67
2022-08-27T22:04:54.040Z,50.56
2022-08-27T22:08:16.993Z,49.83
2022-08-27T22:11:40.979Z,52.17
2022-08-27T22:15:05.040Z,50.89
2022-08-27T22:18:27.979Z,48.87
2022-08-27T22:21:53.048Z,49.81
2022-08-27T22:25:16.987Z,47.88
2022-08-27T22:28:40.000Z,49.30
2022-08-27T22:32:03.023Z,45.77
2022-08-27T22:35:27.986Z,48.63
2022-08-27T22:38:51.977Z,48.44
2022-08-27T22:42:17.832Z,46.32
2022-08-27T22:45:43.026Z,45.51
2022-08-27T22:49:06.025Z,41.56
2022-08-27T22:52:29.042Z,41.89
2022-08-27T22:55:52.068Z,46.06
2022-08-27T22:59:16.036Z,45.39
2022-08-27T23:02:39.073Z,44.88
2022-08-27T23:06:03.088Z,45.58
2022-08-27T23:09:26.093Z,45.13
2022-08-27T23:12:49.008Z,44.05
2022-08-27T23:16:14.086Z,46.93
2022-08-27T23:19:39.041Z,44.25
2022-08-27T23:23:03.030Z,45.93
2022-08-27T23:26:45.030Z,43.71
2022-08-27T23:30:07.090Z,44.94
2022-08-27T23:33:31.050Z,46.34
2022-08-27T23:36:54.040Z,44.44
2022-08-27T23:40:21.095Z,42.65
2022-08-27T23:43:44.085Z,42.19
2022-08-27T23:47:08.026Z,43.63
2022-08-27T23:50:34.337Z,42.09
2022-08-27T23:53:58.088Z,42.91
2022-08-27T23:57:22.055Z,43.69
